sensor_id;sensor_type;location;lat;lon;timestamp;pressure;altitude;pressure_sealevel;temperature;humidity
38466;BME280;24244;51.950;5.902;2023-11-19T00:01:09;100696.84;;;13.09;100.00
38466;BME280;24244;51.950;5.902;2023-11-19T00:03:36;100688.44;;;13.12;100.00
38466;BME280;24244;51.950;5.902;2023-11-19T00:06:03;100698.94;;;13.13;100.00
38466;BME280;24244;51.950;5.902;2023-11-19T00:08:31;100684.34;;;13.16;100.00
38466;BME280;24244;51.950;5.902;2023-11-19T00:10:57;100692.16;;;13.17;100.00
38466;BME280;24244;51.950;5.902;2023-11-19T00:13:24;100674.31;;;13.18;100.00
38466;BME280;24244;51.950;5.902;2023-11-19T00:15:54;100676.56;;;13.21;100.00
38466;BME280;24244;51.950;5.902;2023-11-19T00:18:21;100669.38;;;13.21;100.00
38466;BME280;24244;51.950;5.902;2023-11-19T00:20:48;100667.31;;;13.23;100.00
38466;BME280;24244;51.950;5.902;2023-11-19T00:23:15;100659.31;;;13.23;100.00
38466;BME280;24244;51.950;5.902;2023-11-19T00:25:42;100661.56;;;13.26;100.00
38466;BME280;24244;51.950;5.902;2023-11-19T00:28:09;100651.53;;;13.28;100.00
38466;BME280;24244;51.950;5.902;2023-11-19T00:30:36;100656.88;;;13.28;100.00
38466;BME280;24244;51.950;5.902;2023-11-19T00:33:04;100659.31;;;13.30;100.00
38466;BME280;24244;51.950;5.902;2023-11-19T00:35:31;100649.03;;;13.33;100.00
38466;BME280;24244;51.950;5.902;2023-11-19T00:37:59;100663.81;;;13.36;100.00
38466;BME280;24244;51.950;5.902;2023-11-19T00:40:27;100662.78;;;13.37;100.00
38466;BME280;24244;51.950;5.902;2023-11-19T00:42:55;100656.63;;;13.37;100.00
38466;BME280;24244;51.950;5.902;2023-11-19T00:45:24;100662.59;;;13.39;100.00
38466;BME280;24244;51.950;5.902;2023-11-19T00:47:52;100663.41;;;13.39;100.00
38466;BME280;24244;51.950;5.902;2023-11-19T00:50:20;100674.50;;;13.43;100.00
38466;BME280;24244;51.950;5.902;2023-11-19T00:52:46;100674.28;;;13.44;100.00
38466;BME280;24244;51.950;5.902;2023-11-19T00:55:13;100668.94;;;13.44;100.00
38466;BME280;24244;51.950;5.902;2023-11-19T00:57:40;100664.22;;;13.46;100.00
38466;BME280;24244;51.950;5.902;2023-11-19T01:00:08;100649.22;;;13.45;100.00
38466;BME280;24244;51.950;5.902;2023-11-19T01:02:45;100633.00;;;13.47;100.00
38466;BME280;24244;51.950;5.902;2023-11-19T01:05:13;100633.81;;;13.47;100.00
38466;BME280;24244;51.950;5.902;2023-11-19T01:07:44;100641.84;;;13.47;100.00
38466;BME280;24244;51.950;5.902;2023-11-19T01:10:10;100630.97;;;13.49;100.00
38466;BME280;24244;51.950;5.902;2023-11-19T01:12:38;100641.41;;;13.50;100.00
38466;BME280;24244;51.950;5.902;2023-11-19T01:15:05;100627.25;;;13.50;100.00
38466;BME280;24244;51.950;5.902;2023-11-19T01:17:32;100629.69;;;13.51;100.00
38466;BME280;24244;51.950;5.902;2023-11-19T01:19:59;100635.03;;;13.51;100.00
38466;BME280;24244;51.950;5.902;2023-11-19T01:22:26;100632.16;;;13.53;100.00
38466;BME280;24244;51.950;5.902;2023-11-19T01:24:54;100641.81;;;13.54;100.00
38466;BME280;24244;51.950;5.902;2023-11-19T01:27:21;100642.66;;;13.54;100.00
38466;BME280;24244;51.950;5.902;2023-11-19T01:29:47;100642.66;;;13.54;100.00
38466;BME280;24244;51.950;5.902;2023-11-19T01:32:15;100652.31;;;13.55;100.00
38466;BME280;24244;51.950;5.902;2023-11-19T01:34:41;100641.63;;;13.55;100.00
38466;BME280;24244;51.950;5.902;2023-11-19T01:37:08;100647.78;;;13.56;100.00
38466;BME280;24244;51.950;5.902;2023-11-19T01:39:36;100633.41;;;13.57;100.00
38466;BME280;24244;51.950;5.902;2023-11-19T01:42:05;100622.72;;;13.57;100.00
38466;BME280;24244;51.950;5.902;2023-11-19T01:44:32;100625.16;;;13.58;100.00
38466;BME280;24244;51.950;5.902;2023-11-19T01:47:00;100616.13;;;13.59;100.00
38466;BME280;24244;51.950;5.902;2023-11-19T01:49:28;100622.28;;;13.60;100.00
38466;BME280;24244;51.950;5.902;2023-11-19T01:51:57;100620.66;;;13.59;100.00
38466;BME280;24244;51.950;5.902;2023-11-19T01:54:24;100614.47;;;13.58;100.00
38466;BME280;24244;51.950;5.902;2023-11-19T01:56:53;100614.47;;;13.58;100.00
38466;BME280;24244;51.950;5.902;2023-11-19T01:59:25;100621.47;;;13.59;100.00
38466;BME280;24244;51.950;5.902;2023-11-19T02:01:54;100621.47;;;13.59;100.00
38466;BME280;24244;51.950;5.902;2023-11-19T02:04:24;100630.31;;;13.60;100.00
38466;BME280;24244;51.950;5.902;2023-11-19T02:06:54;100626.81;;;13.59;100.00
38466;BME280;24244;51.950;5.902;2023-11-19T02:09:24;100625.16;;;13.58;100.00
38466;BME280;24244;51.950;5.902;2023-11-19T02:11:51;100614.47;;;13.58;100.00
38466;BME280;24244;51.950;5.902;2023-11-19T02:14:18;100603.81;;;13.58;100.00
38466;BME280;24244;51.950;5.902;2023-11-19T02:16:47;100601.94;;;13.59;100.00
38466;BME280;24244;51.950;5.902;2023-11-19T02:19:14;100605.44;;;13.59;100.00
38466;BME280;24244;51.950;5.902;2023-11-19T02:21:41;100602.78;;;13.59;100.00
38466;BME280;24244;51.950;5.902;2023-11-19T02:24:11;100608.31;;;13.58;100.00
38466;BME280;24244;51.950;5.902;2023-11-19T02:26:44;100605.66;;;13.58;100.00
38466;BME280;24244;51.950;5.902;2023-11-19T02:29:15;100618.19;;;13.57;100.00
38466;BME280;24244;51.950;5.902;2023-11-19T02:31:42;100615.75;;;13.56;100.00
38466;BME280;24244;51.950;5.902;2023-11-19T02:34:10;100611.22;;;13.56;100.00
38466;BME280;24244;51.950;5.902;2023-11-19T02:36:39;100625.59;;;13.55;100.00
38466;BME280;24244;51.950;5.902;2023-11-19T02:39:08;100621.91;;;13.56;100.00
38466;BME280;24244;51.950;5.902;2023-11-19T02:41:37;100615.75;;;13.56;100.00
38466;BME280;24244;51.950;5.902;2023-11-19T02:44:06;100608.75;;;13.55;100.00
38466;BME280;24244;51.950;5.902;2023-11-19T02:46:34;100611.44;;;13.55;100.00
38466;BME280;24244;51.950;5.902;2023-11-19T02:49:02;100611.63;;;13.53;100.00
38466;BME280;24244;51.950;5.902;2023-11-19T02:51:29;100615.31;;;13.52;100.00
38466;BME280;24244;51.950;5.902;2023-11-19T02:53:57;100616.16;;;13.53;100.00
38466;BME280;24244;51.950;5.902;2023-11-19T02:56:24;100615.31;;;13.52;100.00
38466;BME280;24244;51.950;5.902;2023-11-19T02:58:53;100612.84;;;13.51;100.00
38466;BME280;24244;51.950;5.902;2023-11-19T03:01:23;100626.44;;;13.49;100.00
38466;BME280;24244;51.950;5.902;2023-11-19T03:03:59;100616.97;;;13.47;100.00
38466;BME280;24244;51.950;5.902;2023-11-19T03:06:28;100622.53;;;13.45;100.00
38466;BME280;24244;51.950;5.902;2023-11-19T03:08:55;100603.84;;;13.45;100.00
38466;BME280;24244;51.950;5.902;2023-11-19T03:11:22;100591.94;;;13.41;100.00
38466;BME280;24244;51.950;5.902;2023-11-19T03:13:52;100601.81;;;13.41;100.00
38466;BME280;24244;51.950;5.902;2023-11-19T03:16:19;100610.84;;;13.40;100.00
38466;BME280;24244;51.950;5.902;2023-11-19T03:18:46;100608.38;;;13.38;100.00
38466;BME280;24244;51.950;5.902;2023-11-19T03:21:14;100614.13;;;13.35;100.00
38466;BME280;24244;51.950;5.902;2023-11-19T03:23:40;100615.16;;;13.34;100.00
38466;BME280;24244;51.950;5.902;2023-11-19T03:26:07;100625.84;;;13.34;100.00
38466;BME280;24244;51.950;5.902;2023-11-19T03:28:35;100617.22;;;13.32;100.00
38466;BME280;24244;51.950;5.902;2023-11-19T03:31:04;100618.22;;;13.31;100.00
38466;BME280;24244;51.950;5.902;2023-11-19T03:33:31;100611.25;;;13.30;100.00
38466;BME280;24244;51.950;5.902;2023-11-19T03:35:58;100610.66;;;13.28;100.00
38466;BME280;24244;51.950;5.902;2023-11-19T03:38:26;100612.50;;;13.27;100.00
38466;BME280;24244;51.950;5.902;2023-11-19T03:40:53;100597.72;;;13.25;100.00
38466;BME280;24244;51.950;5.902;2023-11-19T03:43:20;100603.44;;;13.22;100.00
38466;BME280;24244;51.950;5.902;2023-11-19T03:45:46;100611.69;;;13.20;100.00
38466;BME280;24244;51.950;5.902;2023-11-19T03:48:14;100604.09;;;13.17;100.00
38466;BME280;24244;51.950;5.902;2023-11-19T03:50:44;100601.03;;;13.14;100.00
38466;BME280;24244;51.950;5.902;2023-11-19T03:53:11;100607.56;;;13.11;100.00
38466;BME280;24244;51.950;5.902;2023-11-19T03:55:39;100597.28;;;13.08;100.00
38466;BME280;24244;51.950;5.902;2023-11-19T03:58:06;100609.22;;;13.06;100.00
38466;BME280;24244;51.950;5.902;2023-11-19T04:00:33;100598.94;;;13.03;99.92
38466;BME280;24244;51.950;5.902;2023-11-19T04:03:00;100600.97;;;13.01;99.83
38466;BME280;24244;51.950;5.902;2023-11-19T04:05:27;100609.41;;;12.98;99.86
38466;BME280;24244;51.950;5.902;2023-11-19T04:07:57;100615.75;;;12.97;99.82
38466;BME280;24244;51.950;5.902;2023-11-19T04:10:25;100606.53;;;12.92;100.00
38466;BME280;24244;51.950;5.902;2023-11-19T04:12:55;100605.09;;;12.90;100.00
38466;BME280;24244;51.950;5.902;2023-11-19T04:15:22;100608.97;;;12.87;100.00
38466;BME280;24244;51.950;5.902;2023-11-19T04:17:49;100617.19;;;12.86;99.82
38466;BME280;24244;51.950;5.902;2023-11-19T04:20:16;100603.44;;;12.82;99.29
38466;BME280;24244;51.950;5.902;2023-11-19T04:22:43;100610.22;;;12.78;99.53
38466;BME280;24244;51.950;5.902;2023-11-19T04:25:10;100624.78;;;12.76;99.46
38466;BME280;24244;51.950;5.902;2023-11-19T04:27:38;100622.31;;;12.74;99.65
38466;BME280;24244;51.950;5.902;2023-11-19T04:30:07;100624.34;;;12.72;99.52
38466;BME280;24244;51.950;5.902;2023-11-19T04:32:38;100625.78;;;12.68;99.52
38466;BME280;24244;51.950;5.902;2023-11-19T04:35:07;100623.53;;;12.65;99.33
38466;BME280;24244;51.950;5.902;2023-11-19T04:37:34;100624.97;;;12.61;99.28
38466;BME280;24244;51.950;5.902;2023-11-19T04:40:01;100630.91;;;12.57;99.57
38466;BME280;24244;51.950;5.902;2023-11-19T04:42:28;100632.97;;;12.54;99.35
38466;BME280;24244;51.950;5.902;2023-11-19T04:44:56;100630.47;;;12.53;99.45
38466;BME280;24244;51.950;5.902;2023-11-19T04:47:24;100627.19;;;12.51;99.06
38466;BME280;24244;51.950;5.902;2023-11-19T04:49:51;100624.75;;;12.49;99.08
38466;BME280;24244;51.950;5.902;2023-11-19T04:52:18;100631.28;;;12.47;99.06
38466;BME280;24244;51.950;5.902;2023-11-19T04:54:45;100624.50;;;12.44;99.18
38466;BME280;24244;51.950;5.902;2023-11-19T04:57:12;100632.09;;;12.41;98.92
38466;BME280;24244;51.950;5.902;2023-11-19T04:59:39;100630.25;;;12.41;99.05
38466;BME280;24244;51.950;5.902;2023-11-19T05:02:08;100630.47;;;12.40;98.65
38466;BME280;24244;51.950;5.902;2023-11-19T05:04:36;100635.97;;;12.38;98.98
38466;BME280;24244;51.950;5.902;2023-11-19T05:07:04;100637.00;;;12.37;98.72
38466;BME280;24244;51.950;5.902;2023-11-19T05:09:31;100642.75;;;12.34;99.10
38466;BME280;24244;51.950;5.902;2023-11-19T05:11:58;100634.13;;;12.32;99.00
38466;BME280;24244;51.950;5.902;2023-11-19T05:14:25;100634.31;;;12.31;99.20
38466;BME280;24244;51.950;5.902;2023-11-19T05:16:52;100633.72;;;12.29;98.71
38466;BME280;24244;51.950;5.902;2023-11-19T05:19:18;100639.84;;;12.29;99.17
38466;BME280;24244;51.950;5.902;2023-11-19T05:21:47;100638.22;;;12.28;98.70
38466;BME280;24244;51.950;5.902;2023-11-19T05:24:13;100653.38;;;12.28;98.84
38466;BME280;24244;51.950;5.902;2023-11-19T05:26:40;100646.41;;;12.27;98.56
38466;BME280;24244;51.950;5.902;2023-11-19T05:29:07;100644.56;;;12.27;98.68
38466;BME280;24244;51.950;5.902;2023-11-19T05:31:35;100645.59;;;12.26;98.63
38466;BME280;24244;51.950;5.902;2023-11-19T05:34:03;100643.94;;;12.25;98.68
38466;BME280;24244;51.950;5.902;2023-11-19T05:36:30;100647.44;;;12.26;98.88
38466;BME280;24244;51.950;5.902;2023-11-19T05:38:59;100654.41;;;12.27;98.63
38466;BME280;24244;51.950;5.902;2023-11-19T05:41:25;100636.78;;;12.26;98.34
38466;BME280;24244;51.950;5.902;2023-11-19T05:43:52;100656.25;;;12.26;98.42
38466;BME280;24244;51.950;5.902;2023-11-19T05:46:19;100645.59;;;12.26;98.47
38466;BME280;24244;51.950;5.902;2023-11-19T05:48:47;100662.41;;;12.27;98.03
38466;BME280;24244;51.950;5.902;2023-11-19T05:51:15;100658.91;;;12.26;98.03
38466;BME280;24244;51.950;5.902;2023-11-19T05:53:42;100655.41;;;12.26;98.22
38466;BME280;24244;51.950;5.902;2023-11-19T05:56:11;100651.13;;;12.25;98.06
38466;BME280;24244;51.950;5.902;2023-11-19T05:58:38;100643.13;;;12.25;98.08
38466;BME280;24244;51.950;5.902;2023-11-19T06:01:06;100642.28;;;12.24;97.97
38466;BME280;24244;51.950;5.902;2023-11-19T06:03:35;100637.97;;;12.23;97.64
38466;BME280;24244;51.950;5.902;2023-11-19T06:06:04;100633.66;;;12.22;97.69
38466;BME280;24244;51.950;5.902;2023-11-19T06:08:32;100641.06;;;12.20;97.50
38466;BME280;24244;51.950;5.902;2023-11-19T06:10:58;100656.03;;;12.21;97.73
38466;BME280;24244;51.950;5.902;2023-11-19T06:13:29;100658.88;;;12.20;97.81
38466;BME280;24244;51.950;5.902;2023-11-19T06:15:58;100649.25;;;12.19;97.70
38466;BME280;24244;51.950;5.902;2023-11-19T06:18:25;100650.25;;;12.18;97.34
38466;BME280;24244;51.950;5.902;2023-11-19T06:20:52;100656.41;;;12.18;97.64
38466;BME280;24244;51.950;5.902;2023-11-19T06:23:19;100647.78;;;12.16;97.67
38466;BME280;24244;51.950;5.902;2023-11-19T06:25:46;100649.63;;;12.15;97.30
38466;BME280;24244;51.950;5.902;2023-11-19T06:28:12;100644.53;;;12.14;97.44
38466;BME280;24244;51.950;5.902;2023-11-19T06:30:41;100635.72;;;12.13;97.57
38466;BME280;24244;51.950;5.902;2023-11-19T06:33:12;100636.53;;;12.14;97.43
38466;BME280;24244;51.950;5.902;2023-11-19T06:35:39;100640.41;;;12.11;97.28
38466;BME280;24244;51.950;5.902;2023-11-19T06:38:06;100636.09;;;12.10;97.18
38466;BME280;24244;51.950;5.902;2023-11-19T06:40:33;100644.09;;;12.10;97.46
38466;BME280;24244;51.950;5.902;2023-11-19T06:43:02;100639.78;;;12.09;97.16
38466;BME280;24244;51.950;5.902;2023-11-19T06:45:35;100656.78;;;12.08;97.29
38466;BME280;24244;51.950;5.902;2023-11-19T06:48:05;100644.88;;;12.04;96.98
38466;BME280;24244;51.950;5.902;2023-11-19T06:50:32;100667.03;;;12.05;97.21
38466;BME280;24244;51.950;5.902;2023-11-19T06:52:59;100654.53;;;12.05;97.44
38466;BME280;24244;51.950;5.902;2023-11-19T06:55:26;100661.69;;;12.05;97.02
38466;BME280;24244;51.950;5.902;2023-11-19T06:57:53;100663.53;;;12.04;97.27
38466;BME280;24244;51.950;5.902;2023-11-19T07:00:20;100667.22;;;12.03;97.22
38466;BME280;24244;51.950;5.902;2023-11-19T07:02:47;100678.69;;;12.04;97.20
38466;BME280;24244;51.950;5.902;2023-11-19T07:05:16;100680.53;;;12.03;97.09
38466;BME280;24244;51.950;5.902;2023-11-19T07:07:43;100677.03;;;12.03;97.01
38466;BME280;24244;51.950;5.902;2023-11-19T07:10:10;100681.34;;;12.04;97.11
38466;BME280;24244;51.950;5.902;2023-11-19T07:12:37;100688.53;;;12.03;97.04
38466;BME280;24244;51.950;5.902;2023-11-19T07:15:06;100679.72;;;12.03;96.83
38466;BME280;24244;51.950;5.902;2023-11-19T07:17:33;100689.53;;;12.02;96.72
38466;BME280;24244;51.950;5.902;2023-11-19T07:20:02;100686.06;;;12.02;96.94
38466;BME280;24244;51.950;5.902;2023-11-19T07:22:30;100695.88;;;12.01;97.05
38466;BME280;24244;51.950;5.902;2023-11-19T07:24:57;100701.22;;;12.01;96.80
38466;BME280;24244;51.950;5.902;2023-11-19T07:27:23;100692.41;;;12.01;96.76
38466;BME280;24244;51.950;5.902;2023-11-19T07:29:51;100689.94;;;11.99;96.91
38466;BME280;24244;51.950;5.902;2023-11-19T07:32:18;100706.75;;;12.00;96.82
38466;BME280;24244;51.950;5.902;2023-11-19T07:34:45;100702.63;;;11.97;96.89
38466;BME280;24244;51.950;5.902;2023-11-19T07:37:12;100713.28;;;11.97;96.45
38466;BME280;24244;51.950;5.902;2023-11-19T07:39:40;100715.97;;;11.97;96.64
38466;BME280;24244;51.950;5.902;2023-11-19T07:42:08;100725.78;;;11.97;96.60
38466;BME280;24244;51.950;5.902;2023-11-19T07:44:36;100720.47;;;11.97;96.75
38466;BME280;24244;51.950;5.902;2023-11-19T07:47:04;100724.78;;;11.98;96.44
38466;BME280;24244;51.950;5.902;2023-11-19T07:49:31;100722.13;;;11.98;96.57
38466;BME280;24244;51.950;5.902;2023-11-19T07:51:58;100723.94;;;11.97;96.86
38466;BME280;24244;51.950;5.902;2023-11-19T07:54:25;100722.13;;;11.98;96.54
38466;BME280;24244;51.950;5.902;2023-11-19T07:56:54;100718.44;;;11.99;96.64
38466;BME280;24244;51.950;5.902;2023-11-19T07:59:21;100722.75;;;12.00;96.46
38466;BME280;24244;51.950;5.902;2023-11-19T08:01:47;100724.59;;;11.99;96.51
38466;BME280;24244;51.950;5.902;2023-11-19T08:04:15;100723.56;;;12.00;96.51
38466;BME280;24244;51.950;5.902;2023-11-19T08:06:42;100719.03;;;12.01;96.54
38466;BME280;24244;51.950;5.902;2023-11-19T08:09:08;100717.19;;;12.01;96.32
38466;BME280;24244;51.950;5.902;2023-11-19T08:11:40;100713.72;;;12.01;96.50
38466;BME280;24244;51.950;5.902;2023-11-19T08:14:08;100712.69;;;12.02;96.32
38466;BME280;24244;51.950;5.902;2023-11-19T08:16:35;100708.38;;;12.01;96.20
38466;BME280;24244;51.950;5.902;2023-11-19T08:19:04;100716.19;;;12.02;96.64
38466;BME280;24244;51.950;5.902;2023-11-19T08:21:30;100732.81;;;12.04;96.56
38466;BME280;24244;51.950;5.902;2023-11-19T08:23:57;100737.75;;;12.07;96.35
38466;BME280;24244;51.950;5.902;2023-11-19T08:26:24;100728.72;;;12.08;96.59
38466;BME280;24244;51.950;5.902;2023-11-19T08:28:50;100729.53;;;12.09;96.36
38466;BME280;24244;51.950;5.902;2023-11-19T08:31:19;100724.66;;;12.12;96.25
38466;BME280;24244;51.950;5.902;2023-11-19T08:33:46;100727.94;;;12.14;96.42
38466;BME280;24244;51.950;5.902;2023-11-19T08:36:16;100731.22;;;12.16;96.23
38466;BME280;24244;51.950;5.902;2023-11-19T08:38:44;100723.88;;;12.19;96.12
38466;BME280;24244;51.950;5.902;2023-11-19T08:41:11;100725.50;;;12.20;96.20
38466;BME280;24244;51.950;5.902;2023-11-19T08:43:38;100718.94;;;12.22;96.24
38466;BME280;24244;51.950;5.902;2023-11-19T08:46:09;100720.22;;;12.26;96.31
38466;BME280;24244;51.950;5.902;2023-11-19T08:48:38;100725.34;;;12.28;96.12
38466;BME280;24244;51.950;5.902;2023-11-19T08:51:05;100735.78;;;12.29;95.55
38466;BME280;24244;51.950;5.902;2023-11-19T08:53:33;100739.28;;;12.30;95.68
38466;BME280;24244;51.950;5.902;2023-11-19T08:56:00;100738.06;;;12.32;95.84
38466;BME280;24244;51.950;5.902;2023-11-19T08:58:29;100738.91;;;12.33;95.91
38466;BME280;24244;51.950;5.902;2023-11-19T09:00:57;100729.88;;;12.34;95.85
38466;BME280;24244;51.950;5.902;2023-11-19T09:03:24;100729.69;;;12.35;95.79
38466;BME280;24244;51.950;5.902;2023-11-19T09:06:00;100730.50;;;12.36;95.51
38466;BME280;24244;51.950;5.902;2023-11-19T09:08:26;100742.78;;;12.37;95.47
38466;BME280;24244;51.950;5.902;2023-11-19T09:10:53;100735.44;;;12.39;95.72
38466;BME280;24244;51.950;5.902;2023-11-19T09:13:20;100728.06;;;12.41;95.89
38466;BME280;24244;51.950;5.902;2023-11-19T09:15:47;100732.38;;;12.42;95.74
38466;BME280;24244;51.950;5.902;2023-11-19T09:18:14;100732.97;;;12.44;95.41
38466;BME280;24244;51.950;5.902;2023-11-19T09:20:41;100744.28;;;12.46;95.37
38466;BME280;24244;51.950;5.902;2023-11-19T09:23:09;100736.91;;;12.48;95.41
38466;BME280;24244;51.950;5.902;2023-11-19T09:25:36;100730.56;;;12.49;95.24
38466;BME280;24244;51.950;5.902;2023-11-19T09:28:06;100732.22;;;12.50;95.33
38466;BME280;24244;51.950;5.902;2023-11-19T09:30:33;100744.50;;;12.51;95.34
38466;BME280;24244;51.950;5.902;2023-11-19T09:33:00;100734.47;;;12.53;94.67
38466;BME280;24244;51.950;5.902;2023-11-19T09:35:27;100736.31;;;12.52;95.34
38466;BME280;24244;51.950;5.902;2023-11-19T09:37:54;100738.59;;;12.55;95.20
38466;BME280;24244;51.950;5.902;2023-11-19T09:40:23;100727.09;;;12.55;95.09
38466;BME280;24244;51.950;5.902;2023-11-19T09:42:50;100727.72;;;12.57;95.02
38466;BME280;24244;51.950;5.902;2023-11-19T09:45:17;100726.50;;;12.60;94.83
38466;BME280;24244;51.950;5.902;2023-11-19T09:47:47;100727.94;;;12.62;94.98
38466;BME280;24244;51.950;5.902;2023-11-19T09:50:18;100723.25;;;12.64;94.93
38466;BME280;24244;51.950;5.902;2023-11-19T09:52:46;100730.19;;;12.65;94.74
38466;BME280;24244;51.950;5.902;2023-11-19T09:55:13;100716.66;;;12.67;94.93
38466;BME280;24244;51.950;5.902;2023-11-19T09:57:41;100708.47;;;12.68;94.53
38466;BME280;24244;51.950;5.902;2023-11-19T10:00:12;100725.28;;;12.69;94.53
38466;BME280;24244;51.950;5.902;2023-11-19T10:02:43;100728.38;;;12.72;94.63
38466;BME280;24244;51.950;5.902;2023-11-19T10:05:13;100725.50;;;12.74;94.60
38466;BME280;24244;51.950;5.902;2023-11-19T10:07:42;100715.47;;;12.76;94.07
38466;BME280;24244;51.950;5.902;2023-11-19T10:10:09;100722.25;;;12.78;94.03
38466;BME280;24244;51.950;5.902;2023-11-19T10:12:41;100714.84;;;12.80;93.79
38466;BME280;24244;51.950;5.902;2023-11-19T10:15:24;100723.47;;;12.82;93.76
38466;BME280;24244;51.950;5.902;2023-11-19T10:17:55;100707.28;;;12.84;93.72
38466;BME280;24244;51.950;5.902;2023-11-19T10:20:22;100708.09;;;12.84;93.85
38466;BME280;24244;51.950;5.902;2023-11-19T10:22:52;100705.22;;;12.86;93.88
38466;BME280;24244;51.950;5.902;2023-11-19T10:25:22;100704.19;;;12.87;93.77
38466;BME280;24244;51.950;5.902;2023-11-19T10:27:52;100705.00;;;12.87;93.57
38466;BME280;24244;51.950;5.902;2023-11-19T10:30:21;100700.50;;;12.88;93.66
38466;BME280;24244;51.950;5.902;2023-11-19T10:33:03;100704.00;;;12.88;93.12
38466;BME280;24244;51.950;5.902;2023-11-19T10:35:30;100708.13;;;12.91;93.24
38466;BME280;24244;51.950;5.902;2023-11-19T10:37:59;100696.44;;;12.92;93.16
38466;BME280;24244;51.950;5.902;2023-11-19T10:40:38;100702.34;;;12.94;93.21
38466;BME280;24244;51.950;5.902;2023-11-19T10:43:07;100708.31;;;12.96;93.25
38466;BME280;24244;51.950;5.902;2023-11-19T10:45:35;100703.81;;;12.97;92.98
38466;BME280;24244;51.950;5.902;2023-11-19T10:48:02;100693.97;;;12.97;93.17
38466;BME280;24244;51.950;5.902;2023-11-19T10:50:33;100688.22;;;13.00;93.16
38466;BME280;24244;51.950;5.902;2023-11-19T10:53:01;100682.28;;;13.05;92.91
38466;BME280;24244;51.950;5.902;2023-11-19T10:55:29;100670.56;;;13.06;92.63
38466;BME280;24244;51.950;5.902;2023-11-19T10:57:59;100677.34;;;13.08;92.66
38466;BME280;24244;51.950;5.902;2023-11-19T11:00:30;100668.09;;;13.11;92.48
38466;BME280;24244;51.950;5.902;2023-11-19T11:03:01;100671.44;;;13.13;92.36
38466;BME280;24244;51.950;5.902;2023-11-19T11:05:29;100667.50;;;13.15;92.20
38466;BME280;24244;51.950;5.902;2023-11-19T11:08:00;100679.84;;;13.16;91.72
38466;BME280;24244;51.950;5.902;2023-11-19T11:10:28;100678.63;;;13.19;91.46
38466;BME280;24244;51.950;5.902;2023-11-19T11:13:03;100682.72;;;13.21;91.51
38466;BME280;24244;51.950;5.902;2023-11-19T11:15:31;100668.13;;;13.24;91.41
38466;BME280;24244;51.950;5.902;2023-11-19T11:18:00;100663.41;;;13.26;91.22
38466;BME280;24244;51.950;5.902;2023-11-19T11:20:32;100660.56;;;13.27;91.08
38466;BME280;24244;51.950;5.902;2023-11-19T11:23:35;100669.38;;;13.28;90.46
38466;BME280;24244;51.950;5.902;2023-11-19T11:26:18;100661.97;;;13.30;90.56
38466;BME280;24244;51.950;5.902;2023-11-19T11:28:56;100684.78;;;13.32;90.48
38466;BME280;24244;51.950;5.902;2023-11-19T11:31:34;100667.72;;;13.33;90.21
38466;BME280;24244;51.950;5.902;2023-11-19T11:34:20;100667.31;;;13.37;90.27
38466;BME280;24244;51.950;5.902;2023-11-19T11:36:59;100669.56;;;13.40;90.38
38466;BME280;24244;51.950;5.902;2023-11-19T11:39:30;100667.72;;;13.40;89.80
38466;BME280;24244;51.950;5.902;2023-11-19T11:42:34;100664.84;;;13.42;89.84
38466;BME280;24244;51.950;5.902;2023-11-19T11:45:03;100660.94;;;13.44;89.73
38466;BME280;24244;51.950;5.902;2023-11-19T11:48:11;100666.91;;;13.46;89.79
38466;BME280;24244;51.950;5.902;2023-11-19T11:50:57;100663.41;;;13.46;89.79
38466;BME280;24244;51.950;5.902;2023-11-19T11:53:25;100664.03;;;13.48;89.98
38466;BME280;24244;51.950;5.902;2023-11-19T11:55:55;100657.66;;;13.49;89.87
38466;BME280;24244;51.950;5.902;2023-11-19T11:58:32;100666.25;;;13.51;89.64
38466;BME280;24244;51.950;5.902;2023-11-19T12:01:02;100656.63;;;13.50;89.75
38466;BME280;24244;51.950;5.902;2023-11-19T12:03:32;100650.69;;;13.48;89.72
38466;BME280;24244;51.950;5.902;2023-11-19T12:05:59;100646.16;;;13.48;89.97
38466;BME280;24244;51.950;5.902;2023-11-19T12:08:28;100642.66;;;13.48;89.66
38466;BME280;24244;51.950;5.902;2023-11-19T12:10:58;100642.88;;;13.46;89.81
38466;BME280;24244;51.950;5.902;2023-11-19T12:13:44;100645.72;;;13.45;89.74
38466;BME280;24244;51.950;5.902;2023-11-19T12:16:13;100649.22;;;13.45;89.77
38466;BME280;24244;51.950;5.902;2023-11-19T12:18:41;100644.91;;;13.44;89.81
38466;BME280;24244;51.950;5.902;2023-11-19T12:21:08;100659.91;;;13.45;89.88
38466;BME280;24244;51.950;5.902;2023-11-19T12:23:45;100660.53;;;13.47;89.96
38466;BME280;24244;51.950;5.902;2023-11-19T12:26:41;100646.75;;;13.50;89.10
38466;BME280;24244;51.950;5.902;2023-11-19T12:29:14;100647.38;;;13.52;88.94
38466;BME280;24244;51.950;5.902;2023-11-19T12:31:53;100662.78;;;13.57;88.87
38466;BME280;24244;51.950;5.902;2023-11-19T12:34:21;100655.16;;;13.60;88.84
38466;BME280;24244;51.950;5.902;2023-11-19T12:36:51;100649.41;;;13.63;88.59
38466;BME280;24244;51.950;5.902;2023-11-19T12:39:18;100655.97;;;13.67;88.63
38466;BME280;24244;51.950;5.902;2023-11-19T12:41:53;100643.22;;;13.69;88.40
38466;BME280;24244;51.950;5.902;2023-11-19T12:44:21;100639.09;;;13.73;88.33
38466;BME280;24244;51.950;5.902;2023-11-19T12:47:05;100649.38;;;13.77;88.05
38466;BME280;24244;51.950;5.902;2023-11-19T12:49:39;100640.72;;;13.81;88.04
38466;BME280;24244;51.950;5.902;2023-11-19T12:52:12;100635.81;;;13.85;87.94
38466;BME280;24244;51.950;5.902;2023-11-19T12:54:39;100646.06;;;13.88;87.74
38466;BME280;24244;51.950;5.902;2023-11-19T12:57:06;100648.91;;;13.93;87.71